Time,TemperatureF,DewpointF,PressureIn,WindDirection,WindDirectionDegrees,WindSpeedMPH,WindSpeedGustMPH,Humidity,HourlyPrecipIn,Conditions,Clouds,dailyrainin,SoftwareType,DateUTC
2013-05-11 00:05:00,52.9,51.0,30.13,SW,218,0.0,0.0,92,0.00,,,0.00,weatherlink.com 1.10,2013-05-11 07:05:00,
2013-05-11 00:20:00,52.5,50.0,30.14,SW,218,0.0,0.0,92,0.00,,,0.00,weatherlink.com 1.10,2013-05-11 07:20:00,
2013-05-11 00:35:00,52.3,50.0,30.14,SW,218,0.0,0.0,92,0.00,,,0.00,weatherlink.com 1.10,2013-05-11 07:35:00,
2013-05-11 00:50:00,51.9,50.0,30.13,SW,217,0.0,0.0,93,0.00,,,0.00,weatherlink.com 1.10,2013-05-11 07:50:00,
2013-05-11 01:06:00,51.6,50.0,30.13,SW,218,0.0,0.0,93,0.00,,,0.00,weatherlink.com 1.10,2013-05-11 08:06:00,
2013-05-11 01:21:00,51.2,49.0,30.12,SW,218,0.0,0.0,93,0.00,,,0.00,weatherlink.com 1.10,2013-05-11 08:21:00,
2013-05-11 01:36:00,50.9,49.0,30.12,SW,218,0.0,0.0,93,0.00,,,0.00,weatherlink.com 1.10,2013-05-11 08:36:00,
2013-05-11 01:51:00,50.6,49.0,30.12,SW,218,0.0,0.0,93,0.00,,,0.00,weatherlink.com 1.10,2013-05-11 08:51:00,
2013-05-11 02:06:00,50.4,49.0,30.12,SW,218,0.0,0.0,93,0.00,,,0.00,weatherlink.com 1.10,2013-05-11 09:06:00,
2013-05-11 02:22:00,50.1,49.0,30.11,SW,218,0.0,0.0,94,0.00,,,0.00,weatherlink.com 1.10,2013-05-11 09:22:00,
2013-05-11 02:36:00,49.8,48.0,30.11,SW,218,0.0,0.0,94,0.00,,,0.00,weatherlink.com 1.10,2013-05-11 09:36:00,
2013-05-11 02:51:00,49.6,48.0,30.11,SW,218,0.0,0.0,94,0.00,,,0.00,weatherlink.com 1.10,2013-05-11 09:51:00,
2013-05-11 03:06:00,49.3,48.0,30.10,SW,218,0.0,0.0,94,0.00,,,0.00,weatherlink.com 1.10,2013-05-11 10:06:00,
2013-05-11 03:21:00,49.1,48.0,30.10,SW,218,0.0,0.0,94,0.00,,,0.00,weatherlink.com 1.10,2013-05-11 10:21:00,
2013-05-11 03:36:00,48.9,47.0,30.10,SW,218,0.0,0.0,94,0.00,,,0.00,weatherlink.com 1.10,2013-05-11 10:36:00,
2013-05-11 03:52:00,48.7,47.0,30.10,SW,218,0.0,0.0,94,0.00,,,0.00,weatherlink.com 1.10,2013-05-11 10:52:00,
2013-05-11 04:06:00,48.5,47.0,30.10,SW,218,0.0,0.0,94,0.00,,,0.00,weatherlink.com 1.10,2013-05-11 11:06:00,
2013-05-11 04:21:00,48.3,47.0,30.09,SW,218,0.0,0.0,94,0.00,,,0.00,weatherlink.com 1.10,2013-05-11 11:21:00,
2013-05-11 04:36:00,48.3,47.0,30.09,SW,218,0.0,0.0,95,0.00,,,0.00,weatherlink.com 1.10,2013-05-11 11:36:00,
2013-05-11 04:51:00,48.4,47.0,30.10,SW,218,0.0,0.0,95,0.00,,,0.00,weatherlink.com 1.10,2013-05-11 11:51:00,
2013-05-11 05:06:00,48.3,47.0,30.09,SW,218,0.0,0.0,95,0.00,,,0.00,weatherlink.com 1.10,2013-05-11 12:06:00,
2013-05-11 05:21:00,48.1,47.0,30.09,SW,218,0.0,0.0,95,0.00,,,0.00,weatherlink.com 1.10,2013-05-11 12:21:00,
2013-05-11 05:36:00,47.9,47.0,30.09,SW,218,0.0,0.0,95,0.00,,,0.00,weatherlink.com 1.10,2013-05-11 12:36:00,
2013-05-11 05:51:00,48.0,47.0,30.09,SW,218,0.0,0.0,95,0.00,,,0.00,weatherlink.com 1.10,2013-05-11 12:51:00,
2013-05-11 06:06:00,48.1,47.0,30.09,SW,218,0.0,0.0,96,0.00,,,0.00,weatherlink.com 1.10,2013-05-11 13:06:00,
2013-05-11 06:21:00,48.1,47.0,30.09,SW,218,0.0,0.0,96,0.00,,,0.00,weatherlink.com 1.10,2013-05-11 13:21:00,
2013-05-11 06:37:00,48.2,47.0,30.10,SW,218,0.0,0.0,96,0.00,,,0.00,weatherlink.com 1.10,2013-05-11 13:37:00,
2013-05-11 06:51:00,48.4,47.0,30.10,SW,218,0.0,0.0,96,0.00,,,0.00,weatherlink.com 1.10,2013-05-11 13:51:00,
2013-05-11 07:06:00,48.6,48.0,30.11,SW,218,0.0,0.0,96,0.00,,,0.00,weatherlink.com 1.10,2013-05-11 14:06:00,
2013-05-11 07:21:00,48.7,48.0,30.11,SW,218,0.0,0.0,96,0.00,,,0.00,weatherlink.com 1.10,2013-05-11 14:21:00,
2013-05-11 07:36:00,48.8,48.0,30.11,SW,218,0.0,0.0,96,0.00,,,0.00,weatherlink.com 1.10,2013-05-11 14:36:00,
2013-05-11 07:51:00,49.1,48.0,30.11,SW,218,0.0,0.0,96,0.00,,,0.00,weatherlink.com 1.10,2013-05-11 14:51:00,
2013-05-11 08:06:00,49.5,48.0,30.11,SW,218,0.0,0.0,96,0.00,,,0.00,weatherlink.com 1.10,2013-05-11 15:06:00,
2013-05-11 08:22:00,49.9,49.0,30.11,SW,218,0.0,0.0,96,0.00,,,0.00,weatherlink.com 1.10,2013-05-11 15:22:00,
2013-05-11 08:36:00,50.2,49.0,30.11,SW,218,0.0,0.0,96,0.00,,,0.00,weatherlink.com 1.10,2013-05-11 15:36:00,
2013-05-11 08:51:00,50.9,50.0,30.11,SW,218,0.0,0.0,96,0.00,,,0.00,weatherlink.com 1.10,2013-05-11 15:51:00,
2013-05-11 09:06:00,52.0,51.0,30.11,SW,218,0.0,0.0,96,0.00,,,0.00,weatherlink.com 1.10,2013-05-11 16:06:00,
2013-05-11 09:21:00,53.2,52.0,30.10,SW,218,0.0,0.0,96,0.00,,,0.00,weatherlink.com 1.10,2013-05-11 16:21:00,
2013-05-11 09:37:00,54.7,53.0,30.10,SW,218,0.0,0.0,94,0.00,,,0.00,weatherlink.com 1.10,2013-05-11 16:37:00,
2013-05-11 09:52:00,56.7,55.0,30.10,SE,124,0.0,0.0,92,0.00,,,0.00,weatherlink.com 1.10,2013-05-11 16:52:00,
2013-05-11 10:07:00,58.4,55.0,30.09,ESE,121,1.0,2.0,88,0.00,,,0.00,weatherlink.com 1.10,2013-05-11 17:07:00,
2013-05-11 10:22:00,60.1,56.0,30.09,ESE,119,2.0,2.0,86,0.00,,,0.00,weatherlink.com 1.10,2013-05-11 17:22:00,
2013-05-11 10:37:00,61.6,57.0,30.09,ESE,119,0.0,0.0,84,0.00,,,0.00,weatherlink.com 1.10,2013-05-11 17:37:00,
2013-05-11 10:52:00,62.9,58.0,30.09,ESE,118,0.0,0.0,83,0.00,,,0.00,weatherlink.com 1.10,2013-05-11 17:52:00,
2013-05-11 11:07:00,65.0,59.0,30.09,ESE,109,0.0,1.0,80,0.00,,,0.00,weatherlink.com 1.10,2013-05-11 18:07:00,
2013-05-11 11:22:00,67.2,59.0,30.09,ESE,115,2.0,2.0,76,0.00,,,0.00,weatherlink.com 1.10,2013-05-11 18:22:00,
2013-05-11 11:37:00,69.5,60.0,30.08,SE,124,0.0,2.0,72,0.00,,,0.00,weatherlink.com 1.10,2013-05-11 18:37:00,
2013-05-11 11:52:00,71.4,61.0,30.08,SSE,153,0.0,0.0,69,0.00,,,0.00,weatherlink.com 1.10,2013-05-11 18:52:00,
2013-05-11 12:07:00,73.3,60.0,30.07,SE,124,0.0,0.0,64,0.00,,,0.00,weatherlink.com 1.10,2013-05-11 19:07:00,
2013-05-11 12:22:00,75.0,59.0,30.07,SE,142,0.0,0.0,57,0.00,,,0.00,weatherlink.com 1.10,2013-05-11 19:22:00,
2013-05-11 12:37:00,76.8,62.0,30.07,ESE,121,0.0,0.0,60,0.00,,,0.00,weatherlink.com 1.10,2013-05-11 19:37:00,
2013-05-11 12:52:00,78.5,62.0,30.06,ESE,117,0.0,0.0,57,0.00,,,0.00,weatherlink.com 1.10,2013-05-11 19:52:00,
2013-05-11 13:08:00,80.6,62.0,30.06,ESE,116,0.0,2.0,53,0.00,,,0.00,weatherlink.com 1.10,2013-05-11 20:08:00,
2013-05-11 13:23:00,81.7,63.0,30.05,SSW,212,0.0,1.0,53,0.00,,,0.00,weatherlink.com 1.10,2013-05-11 20:23:00,
2013-05-11 13:38:00,82.9,62.0,30.05,SSW,195,0.0,2.0,50,0.00,,,0.00,weatherlink.com 1.10,2013-05-11 20:38:00,
2013-05-11 13:53:00,83.7,63.0,30.05,SSW,210,0.0,2.0,50,0.00,,,0.00,weatherlink.com 1.10,2013-05-11 20:53:00,
2013-05-11 14:08:00,84.0,64.0,30.05,SSW,207,0.0,2.0,51,0.00,,,0.00,weatherlink.com 1.10,2013-05-11 21:08:00,
2013-05-11 14:23:00,85.1,63.0,30.05,SE,145,1.0,3.0,47,0.00,,,0.00,weatherlink.com 1.10,2013-05-11 21:23:00,
2013-05-11 14:38:00,85.0,63.0,30.05,SW,228,1.0,2.0,47,0.00,,,0.00,weatherlink.com 1.10,2013-05-11 21:38:00,
2013-05-11 14:53:00,84.2,62.0,30.05,ESE,122,0.0,2.0,47,0.00,,,0.00,weatherlink.com 1.10,2013-05-11 21:53:00,
2013-05-11 15:08:00,82.5,60.0,30.05,West,267,0.0,2.0,47,0.00,,,0.00,weatherlink.com 1.10,2013-05-11 22:08:00,
2013-05-11 15:23:00,81.3,59.0,30.05,SSW,204,0.0,2.0,46,0.00,,,0.00,weatherlink.com 1.10,2013-05-11 22:23:00,
2013-05-11 15:38:00,80.7,58.0,30.04,SSW,209,0.0,2.0,46,0.00,,,0.00,weatherlink.com 1.10,2013-05-11 22:38:00,
2013-05-11 15:53:00,80.3,58.0,30.04,WNW,297,2.0,2.0,46,0.00,,,0.00,weatherlink.com 1.10,2013-05-11 22:53:00,
2013-05-11 16:08:00,79.9,57.0,30.03,WNW,300,1.0,1.0,46,0.00,,,0.00,weatherlink.com 1.10,2013-05-11 23:08:00,
2013-05-11 16:23:00,79.5,57.0,30.03,WNW,287,0.0,1.0,46,0.00,,,0.00,weatherlink.com 1.10,2013-05-11 23:23:00,
2013-05-11 16:38:00,78.3,56.0,30.03,SW,225,0.0,2.0,47,0.00,,,0.00,weatherlink.com 1.10,2013-05-11 23:38:00,
2013-05-11 16:53:00,76.9,56.0,30.04,WSW,242,1.0,2.0,49,0.00,,,0.00,weatherlink.com 1.10,2013-05-11 23:53:00,
2013-05-11 17:08:00,76.3,56.0,30.03,SSE,160,0.0,1.0,49,0.00,,,0.00,weatherlink.com 1.10,2013-05-12 00:08:00,
2013-05-11 17:23:00,75.9,56.0,30.04,SW,233,0.0,1.0,50,0.00,,,0.00,weatherlink.com 1.10,2013-05-12 00:23:00,
2013-05-11 17:38:00,74.8,57.0,30.04,SSW,206,0.0,1.0,54,0.00,,,0.00,weatherlink.com 1.10,2013-05-12 00:38:00,
2013-05-11 17:53:00,73.6,56.0,30.03,SW,214,1.0,1.0,55,0.00,,,0.00,weatherlink.com 1.10,2013-05-12 00:53:00,
2013-05-11 18:08:00,72.4,57.0,30.03,SW,215,0.0,1.0,58,0.00,,,0.00,weatherlink.com 1.10,2013-05-12 01:08:00,
2013-05-11 18:23:00,71.6,57.0,30.04,SW,225,0.0,1.0,60,0.00,,,0.00,weatherlink.com 1.10,2013-05-12 01:23:00,
2013-05-11 18:38:00,70.5,56.0,30.04,SW,217,1.0,1.0,60,0.00,,,0.00,weatherlink.com 1.10,2013-05-12 01:38:00,
2013-05-11 18:53:00,68.8,55.0,30.03,SW,226,0.0,1.0,61,0.00,,,0.00,weatherlink.com 1.10,2013-05-12 01:53:00,
2013-05-11 19:08:00,67.6,54.0,30.04,SW,226,0.0,1.0,63,0.00,,,0.00,weatherlink.com 1.10,2013-05-12 02:08:00,
2013-05-11 19:23:00,66.6,54.0,30.04,SW,225,0.0,1.0,65,0.00,,,0.00,weatherlink.com 1.10,2013-05-12 02:23:00,
2013-05-11 19:38:00,65.5,54.0,30.04,SW,225,0.0,1.0,67,0.00,,,0.00,weatherlink.com 1.10,2013-05-12 02:38:00,
2013-05-11 19:53:00,64.3,54.0,30.05,SW,224,0.0,1.0,69,0.00,,,0.00,weatherlink.com 1.10,2013-05-12 02:53:00,
2013-05-11 20:08:00,63.5,54.0,30.05,SW,224,0.0,0.0,71,0.00,,,0.00,weatherlink.com 1.10,2013-05-12 03:08:00,
2013-05-11 20:23:00,62.5,54.0,30.05,SSW,200,0.0,0.0,73,0.00,,,0.00,weatherlink.com 1.10,2013-05-12 03:23:00,
2013-05-11 20:38:00,61.5,53.0,30.06,SSW,200,0.0,1.0,74,0.00,,,0.00,weatherlink.com 1.10,2013-05-12 03:38:00,
2013-05-11 20:53:00,60.5,53.0,30.06,SSW,200,0.0,0.0,76,0.00,,,0.00,weatherlink.com 1.10,2013-05-12 03:53:00,
2013-05-11 21:08:00,59.5,53.0,30.07,SSW,200,0.0,1.0,78,0.00,,,0.00,weatherlink.com 1.10,2013-05-12 04:08:00,
2013-05-11 21:24:00,58.8,52.0,30.07,SSW,200,0.0,0.0,79,0.00,,,0.00,weatherlink.com 1.10,2013-05-12 04:24:00,
2013-05-11 21:38:00,57.9,52.0,30.07,SSW,200,0.0,0.0,80,0.00,,,0.00,weatherlink.com 1.10,2013-05-12 04:38:00,
2013-05-11 21:53:00,57.2,51.0,30.08,SSW,200,0.0,1.0,81,0.00,,,0.00,weatherlink.com 1.10,2013-05-12 04:53:00,
2013-05-11 22:08:00,56.3,51.0,30.08,SSW,200,0.0,0.0,82,0.00,,,0.00,weatherlink.com 1.10,2013-05-12 05:08:00,
2013-05-11 22:23:00,55.8,51.0,30.09,SSW,200,0.0,0.0,83,0.00,,,0.00,weatherlink.com 1.10,2013-05-12 05:23:00,
2013-05-11 22:38:00,55.3,51.0,30.09,SSW,200,0.0,0.0,84,0.00,,,0.00,weatherlink.com 1.10,2013-05-12 05:38:00,
2013-05-11 22:53:00,54.9,51.0,30.09,SSW,198,0.0,0.0,85,0.00,,,0.00,weatherlink.com 1.10,2013-05-12 05:53:00,
2013-05-11 23:08:00,54.5,50.0,30.09,SSW,198,0.0,0.0,86,0.00,,,0.00,weatherlink.com 1.10,2013-05-12 06:08:00,
2013-05-11 23:23:00,54.1,50.0,30.10,SSW,198,0.0,0.0,86,0.00,,,0.00,weatherlink.com 1.10,2013-05-12 06:23:00,
2013-05-11 23:38:00,53.8,50.0,30.10,SSW,198,0.0,0.0,87,0.00,,,0.00,weatherlink.com 1.10,2013-05-12 06:38:00,
2013-05-11 23:53:00,53.3,50.0,30.10,SSW,198,0.0,0.0,87,0.00,,,0.00,weatherlink.com 1.10,2013-05-12 06:53:00,